sensor_id;sensor_type;location;lat;lon;timestamp;P1;durP1;ratioP1;P2;durP2;ratioP2
68995;SDS011;56056;48.990;12.146;2023-04-03T00:02:06;5.38;;;5.18;;
68995;SDS011;56056;48.990;12.146;2023-04-03T00:04:32;5.57;;;5.22;;
68995;SDS011;56056;48.990;12.146;2023-04-03T00:06:59;11.18;;;10.73;;
68995;SDS011;56056;48.990;12.146;2023-04-03T00:09:25;1.40;;;1.40;;
68995;SDS011;56056;48.990;12.146;2023-04-03T00:11:51;6.20;;;5.88;;
68995;SDS011;56056;48.990;12.146;2023-04-03T00:14:16;6.63;;;6.25;;
68995;SDS011;56056;48.990;12.146;2023-04-03T00:16:42;2.47;;;2.45;;
68995;SDS011;56056;48.990;12.146;2023-04-03T00:19:08;230.43;;;217.32;;
68995;SDS011;56056;48.990;12.146;2023-04-03T00:21:36;11.23;;;10.40;;
68995;SDS011;56056;48.990;12.146;2023-04-03T00:24:03;9.15;;;8.65;;
68995;SDS011;56056;48.990;12.146;2023-04-03T00:26:29;3.22;;;3.13;;
68995;SDS011;56056;48.990;12.146;2023-04-03T00:28:55;3.90;;;3.67;;
68995;SDS011;56056;48.990;12.146;2023-04-03T00:31:21;13.30;;;12.73;;
68995;SDS011;56056;48.990;12.146;2023-04-03T00:33:47;23.25;;;22.25;;
68995;SDS011;56056;48.990;12.146;2023-04-03T00:36:13;4.07;;;3.88;;
68995;SDS011;56056;48.990;12.146;2023-04-03T00:38:38;76.75;;;72.82;;
68995;SDS011;56056;48.990;12.146;2023-04-03T00:41:06;33.33;;;31.95;;
68995;SDS011;56056;48.990;12.146;2023-04-03T00:43:32;3.72;;;3.63;;
68995;SDS011;56056;48.990;12.146;2023-04-03T00:45:58;6.20;;;5.90;;
68995;SDS011;56056;48.990;12.146;2023-04-03T00:48:25;2.08;;;2.05;;
68995;SDS011;56056;48.990;12.146;2023-04-03T00:50:53;2.03;;;1.92;;
68995;SDS011;56056;48.990;12.146;2023-04-03T00:53:20;10.70;;;10.20;;
68995;SDS011;56056;48.990;12.146;2023-04-03T00:55:48;296.05;;;279.50;;
68995;SDS011;56056;48.990;12.146;2023-04-03T00:58:16;4.95;;;4.75;;
68995;SDS011;56056;48.990;12.146;2023-04-03T01:00:44;69.90;;;66.63;;
68995;SDS011;56056;48.990;12.146;2023-04-03T01:03:13;2.03;;;1.92;;
68995;SDS011;56056;48.990;12.146;2023-04-03T01:05:39;7.57;;;7.28;;
68995;SDS011;56056;48.990;12.146;2023-04-03T01:08:05;3.10;;;2.83;;
68995;SDS011;56056;48.990;12.146;2023-04-03T01:10:31;7.20;;;6.68;;
68995;SDS011;56056;48.990;12.146;2023-04-03T01:12:57;7.88;;;7.43;;
68995;SDS011;56056;48.990;12.146;2023-04-03T01:15:27;1.27;;;1.27;;
68995;SDS011;56056;48.990;12.146;2023-04-03T01:17:59;42.85;;;41.00;;
68995;SDS011;56056;48.990;12.146;2023-04-03T01:20:36;5.55;;;5.30;;
68995;SDS011;56056;48.990;12.146;2023-04-03T01:23:12;2.80;;;2.70;;
68995;SDS011;56056;48.990;12.146;2023-04-03T01:25:48;1.40;;;1.40;;
68995;SDS011;56056;48.990;12.146;2023-04-03T01:28:16;5.00;;;4.78;;
68995;SDS011;56056;48.990;12.146;2023-04-03T01:30:45;230.05;;;218.55;;
68995;SDS011;56056;48.990;12.146;2023-04-03T01:33:14;5.88;;;5.20;;
68995;SDS011;56056;48.990;12.146;2023-04-03T01:35:40;245.15;;;232.85;;
68995;SDS011;56056;48.990;12.146;2023-04-03T01:38:05;1.67;;;1.67;;
68995;SDS011;56056;48.990;12.146;2023-04-03T01:40:31;9.25;;;8.40;;
68995;SDS011;56056;48.990;12.146;2023-04-03T01:42:57;11.65;;;11.23;;
68995;SDS011;56056;48.990;12.146;2023-04-03T01:45:23;1.85;;;1.83;;
68995;SDS011;56056;48.990;12.146;2023-04-03T01:47:49;3.88;;;3.60;;
68995;SDS011;56056;48.990;12.146;2023-04-03T01:50:16;6.53;;;6.00;;
68995;SDS011;56056;48.990;12.146;2023-04-03T01:52:42;3.70;;;3.50;;
68995;SDS011;56056;48.990;12.146;2023-04-03T01:55:08;56.85;;;54.60;;
68995;SDS011;56056;48.990;12.146;2023-04-03T01:57:34;23.63;;;22.67;;
68995;SDS011;56056;48.990;12.146;2023-04-03T01:59:59;33.25;;;31.75;;
68995;SDS011;56056;48.990;12.146;2023-04-03T02:02:25;2.72;;;2.63;;
68995;SDS011;56056;48.990;12.146;2023-04-03T02:04:51;275.50;;;257.52;;
68995;SDS011;56056;48.990;12.146;2023-04-03T02:07:18;4.00;;;3.80;;
68995;SDS011;56056;48.990;12.146;2023-04-03T02:09:43;9.98;;;4.28;;
68995;SDS011;56056;48.990;12.146;2023-04-03T02:12:09;4.00;;;3.80;;
68995;SDS011;56056;48.990;12.146;2023-04-03T02:14:35;3.63;;;3.42;;
68995;SDS011;56056;48.990;12.146;2023-04-03T02:17:00;1.85;;;1.75;;
68995;SDS011;56056;48.990;12.146;2023-04-03T02:19:30;3.42;;;1.92;;
68995;SDS011;56056;48.990;12.146;2023-04-03T02:21:55;122.43;;;116.60;;
68995;SDS011;56056;48.990;12.146;2023-04-03T02:24:22;3.50;;;3.33;;
68995;SDS011;56056;48.990;12.146;2023-04-03T02:26:48;148.90;;;142.02;;
68995;SDS011;56056;48.990;12.146;2023-04-03T02:29:14;1.60;;;1.50;;
68995;SDS011;56056;48.990;12.146;2023-04-03T02:31:39;3.67;;;3.50;;
68995;SDS011;56056;48.990;12.146;2023-04-03T02:34:05;1.73;;;1.73;;
68995;SDS011;56056;48.990;12.146;2023-04-03T02:36:31;5.10;;;4.80;;
68995;SDS011;56056;48.990;12.146;2023-04-03T02:38:56;4.80;;;4.40;;
68995;SDS011;56056;48.990;12.146;2023-04-03T02:41:23;3.35;;;3.15;;
68995;SDS011;56056;48.990;12.146;2023-04-03T02:43:52;1.73;;;1.73;;
68995;SDS011;56056;48.990;12.146;2023-04-03T02:46:18;3.05;;;2.85;;
68995;SDS011;56056;48.990;12.146;2023-04-03T02:48:44;5.70;;;5.45;;
68995;SDS011;56056;48.990;12.146;2023-04-03T02:51:09;2.65;;;2.47;;
68995;SDS011;56056;48.990;12.146;2023-04-03T02:53:35;6.65;;;6.30;;
68995;SDS011;56056;48.990;12.146;2023-04-03T02:56:00;38.30;;;36.75;;
68995;SDS011;56056;48.990;12.146;2023-04-03T02:58:27;5.75;;;5.45;;
68995;SDS011;56056;48.990;12.146;2023-04-03T03:00:53;3.20;;;3.10;;
68995;SDS011;56056;48.990;12.146;2023-04-03T03:03:19;7.93;;;6.25;;
68995;SDS011;56056;48.990;12.146;2023-04-03T03:05:45;4.40;;;4.28;;
68995;SDS011;56056;48.990;12.146;2023-04-03T03:08:10;5.43;;;5.10;;
68995;SDS011;56056;48.990;12.146;2023-04-03T03:10:36;2.35;;;2.25;;
68995;SDS011;56056;48.990;12.146;2023-04-03T03:13:02;5.18;;;4.95;;
68995;SDS011;56056;48.990;12.146;2023-04-03T03:15:29;2.35;;;2.25;;
68995;SDS011;56056;48.990;12.146;2023-04-03T03:17:54;2.42;;;2.38;;
68995;SDS011;56056;48.990;12.146;2023-04-03T03:20:20;18.90;;;17.98;;
68995;SDS011;56056;48.990;12.146;2023-04-03T03:22:46;2.63;;;2.50;;
68995;SDS011;56056;48.990;12.146;2023-04-03T03:25:11;4.68;;;4.25;;
68995;SDS011;56056;48.990;12.146;2023-04-03T03:27:37;2.35;;;2.28;;
68995;SDS011;56056;48.990;12.146;2023-04-03T03:30:03;8.20;;;7.55;;
68995;SDS011;56056;48.990;12.146;2023-04-03T03:32:31;2.15;;;2.05;;
68995;SDS011;56056;48.990;12.146;2023-04-03T03:34:57;11.70;;;11.15;;
68995;SDS011;56056;48.990;12.146;2023-04-03T03:37:23;9.05;;;3.15;;
68995;SDS011;56056;48.990;12.146;2023-04-03T03:39:48;4.78;;;4.57;;
68995;SDS011;56056;48.990;12.146;2023-04-03T03:42:14;10.70;;;10.20;;
68995;SDS011;56056;48.990;12.146;2023-04-03T03:44:40;8.60;;;7.90;;
68995;SDS011;56056;48.990;12.146;2023-04-03T03:47:06;5.47;;;5.13;;
68995;SDS011;56056;48.990;12.146;2023-04-03T03:49:35;10.15;;;9.75;;
68995;SDS011;56056;48.990;12.146;2023-04-03T03:52:01;9.93;;;9.02;;
68995;SDS011;56056;48.990;12.146;2023-04-03T03:54:27;2.58;;;2.47;;
68995;SDS011;56056;48.990;12.146;2023-04-03T03:56:52;7.18;;;6.80;;
68995;SDS011;56056;48.990;12.146;2023-04-03T03:59:18;8.80;;;8.02;;
68995;SDS011;56056;48.990;12.146;2023-04-03T04:01:44;8.90;;;8.38;;
68995;SDS011;56056;48.990;12.146;2023-04-03T04:04:09;2.10;;;2.00;;
68995;SDS011;56056;48.990;12.146;2023-04-03T04:06:36;6.43;;;6.22;;
68995;SDS011;56056;48.990;12.146;2023-04-03T04:09:02;3.58;;;3.38;;
68995;SDS011;56056;48.990;12.146;2023-04-03T04:11:28;6.43;;;6.22;;
68995;SDS011;56056;48.990;12.146;2023-04-03T04:13:53;2.63;;;2.53;;
68995;SDS011;56056;48.990;12.146;2023-04-03T04:16:19;4.68;;;4.38;;
68995;SDS011;56056;48.990;12.146;2023-04-03T04:18:45;22.60;;;21.70;;
68995;SDS011;56056;48.990;12.146;2023-04-03T04:21:10;6.32;;;5.93;;
68995;SDS011;56056;48.990;12.146;2023-04-03T04:23:37;7.22;;;6.90;;
68995;SDS011;56056;48.990;12.146;2023-04-03T04:26:03;10.95;;;10.43;;
68995;SDS011;56056;48.990;12.146;2023-04-03T04:28:29;4.70;;;4.43;;
68995;SDS011;56056;48.990;12.146;2023-04-03T04:30:54;4.18;;;3.78;;
68995;SDS011;56056;48.990;12.146;2023-04-03T04:33:20;3.05;;;2.85;;
68995;SDS011;56056;48.990;12.146;2023-04-03T04:35:47;5.60;;;5.38;;
68995;SDS011;56056;48.990;12.146;2023-04-03T04:38:13;2.83;;;2.72;;
68995;SDS011;56056;48.990;12.146;2023-04-03T04:40:40;2.83;;;2.63;;
68995;SDS011;56056;48.990;12.146;2023-04-03T04:43:06;5.03;;;4.78;;
68995;SDS011;56056;48.990;12.146;2023-04-03T04:45:32;10.48;;;10.07;;
68995;SDS011;56056;48.990;12.146;2023-04-03T04:47:57;14.77;;;14.18;;
68995;SDS011;56056;48.990;12.146;2023-04-03T04:50:23;5.20;;;4.95;;
68995;SDS011;56056;48.990;12.146;2023-04-03T04:52:48;13.48;;;12.70;;
68995;SDS011;56056;48.990;12.146;2023-04-03T04:55:14;80.03;;;75.07;;
68995;SDS011;56056;48.990;12.146;2023-04-03T04:57:41;3.97;;;3.72;;
68995;SDS011;56056;48.990;12.146;2023-04-03T05:00:07;1.15;;;1.15;;
68995;SDS011;56056;48.990;12.146;2023-04-03T05:02:34;10.00;;;9.43;;
68995;SDS011;56056;48.990;12.146;2023-04-03T05:05:00;12.45;;;11.85;;
68995;SDS011;56056;48.990;12.146;2023-04-03T05:07:25;7.57;;;4.57;;
68995;SDS011;56056;48.990;12.146;2023-04-03T05:09:51;463.80;;;435.80;;
68995;SDS011;56056;48.990;12.146;2023-04-03T05:12:17;10.80;;;10.23;;
68995;SDS011;56056;48.990;12.146;2023-04-03T05:14:44;4.88;;;4.57;;
68995;SDS011;56056;48.990;12.146;2023-04-03T05:17:09;6.20;;;5.78;;
68995;SDS011;56056;48.990;12.146;2023-04-03T05:19:35;13.43;;;11.88;;
68995;SDS011;56056;48.990;12.146;2023-04-03T05:22:00;31.20;;;29.83;;
68995;SDS011;56056;48.990;12.146;2023-04-03T05:24:26;14.20;;;13.45;;
68995;SDS011;56056;48.990;12.146;2023-04-03T05:26:52;4.18;;;3.85;;
68995;SDS011;56056;48.990;12.146;2023-04-03T05:29:17;1.52;;;1.52;;
68995;SDS011;56056;48.990;12.146;2023-04-03T05:31:44;22.60;;;21.35;;
68995;SDS011;56056;48.990;12.146;2023-04-03T05:34:10;8.27;;;7.85;;
68995;SDS011;56056;48.990;12.146;2023-04-03T05:36:36;2.30;;;2.20;;
68995;SDS011;56056;48.990;12.146;2023-04-03T05:39:01;8.98;;;8.18;;
68995;SDS011;56056;48.990;12.146;2023-04-03T05:41:27;72.53;;;66.35;;
68995;SDS011;56056;48.990;12.146;2023-04-03T05:43:53;1.45;;;1.45;;
68995;SDS011;56056;48.990;12.146;2023-04-03T05:46:19;595.40;;;507.77;;
68995;SDS011;56056;48.990;12.146;2023-04-03T05:48:47;223.18;;;199.65;;
68995;SDS011;56056;48.990;12.146;2023-04-03T05:51:14;3.58;;;3.38;;
68995;SDS011;56056;48.990;12.146;2023-04-03T05:53:40;5.30;;;4.80;;
68995;SDS011;56056;48.990;12.146;2023-04-03T05:56:06;4.65;;;4.43;;
68995;SDS011;56056;48.990;12.146;2023-04-03T05:58:32;35.35;;;24.20;;
68995;SDS011;56056;48.990;12.146;2023-04-03T06:00:57;17.65;;;16.48;;
68995;SDS011;56056;48.990;12.146;2023-04-03T06:03:23;370.45;;;351.80;;
68995;SDS011;56056;48.990;12.146;2023-04-03T06:05:50;30.52;;;27.73;;
68995;SDS011;56056;48.990;12.146;2023-04-03T06:08:16;13.50;;;12.80;;
68995;SDS011;56056;48.990;12.146;2023-04-03T06:10:42;2.15;;;2.05;;
68995;SDS011;56056;48.990;12.146;2023-04-03T06:13:07;2.78;;;2.30;;
68995;SDS011;56056;48.990;12.146;2023-04-03T06:15:33;9.07;;;8.57;;
68995;SDS011;56056;48.990;12.146;2023-04-03T06:17:59;2.75;;;2.65;;
68995;SDS011;56056;48.990;12.146;2023-04-03T06:20:25;5.88;;;5.57;;
68995;SDS011;56056;48.990;12.146;2023-04-03T06:22:52;5.10;;;4.93;;
68995;SDS011;56056;48.990;12.146;2023-04-03T06:25:17;8.63;;;8.10;;
68995;SDS011;56056;48.990;12.146;2023-04-03T06:27:43;12.40;;;11.45;;
68995;SDS011;56056;48.990;12.146;2023-04-03T06:30:09;22.20;;;20.42;;
68995;SDS011;56056;48.990;12.146;2023-04-03T06:32:36;256.55;;;237.77;;
68995;SDS011;56056;48.990;12.146;2023-04-03T06:35:02;19.83;;;18.70;;
68995;SDS011;56056;48.990;12.146;2023-04-03T06:37:28;2.75;;;1.98;;
68995;SDS011;56056;48.990;12.146;2023-04-03T06:39:56;6.43;;;6.03;;
68995;SDS011;56056;48.990;12.146;2023-04-03T06:42:22;3.75;;;3.63;;
68995;SDS011;56056;48.990;12.146;2023-04-03T06:44:47;3.45;;;3.30;;
68995;SDS011;56056;48.990;12.146;2023-04-03T06:47:13;12.52;;;11.80;;
68995;SDS011;56056;48.990;12.146;2023-04-03T06:49:40;2.88;;;2.65;;
68995;SDS011;56056;48.990;12.146;2023-04-03T06:52:06;6.78;;;6.40;;
68995;SDS011;56056;48.990;12.146;2023-04-03T06:54:32;7.28;;;6.78;;
68995;SDS011;56056;48.990;12.146;2023-04-03T06:56:59;10.57;;;9.90;;
68995;SDS011;56056;48.990;12.146;2023-04-03T06:59:25;318.17;;;302.92;;
68995;SDS011;56056;48.990;12.146;2023-04-03T07:01:51;271.45;;;255.88;;
68995;SDS011;56056;48.990;12.146;2023-04-03T07:04:17;229.05;;;211.48;;
68995;SDS011;56056;48.990;12.146;2023-04-03T07:06:45;54.55;;;52.22;;
68995;SDS011;56056;48.990;12.146;2023-04-03T07:09:11;18.73;;;17.83;;
68995;SDS011;56056;48.990;12.146;2023-04-03T07:11:37;25.25;;;24.13;;
68995;SDS011;56056;48.990;12.146;2023-04-03T07:14:04;5.93;;;5.53;;
68995;SDS011;56056;48.990;12.146;2023-04-03T07:16:31;77.00;;;70.35;;
68995;SDS011;56056;48.990;12.146;2023-04-03T07:18:57;24.90;;;23.73;;
68995;SDS011;56056;48.990;12.146;2023-04-03T07:21:23;12.85;;;11.82;;
68995;SDS011;56056;48.990;12.146;2023-04-03T07:23:48;25.85;;;24.55;;
68995;SDS011;56056;48.990;12.146;2023-04-03T07:26:14;3.08;;;2.88;;
68995;SDS011;56056;48.990;12.146;2023-04-03T07:28:40;50.70;;;46.33;;
68995;SDS011;56056;48.990;12.146;2023-04-03T07:31:08;159.57;;;145.02;;
68995;SDS011;56056;48.990;12.146;2023-04-03T07:33:38;166.38;;;149.27;;
68995;SDS011;56056;48.990;12.146;2023-04-03T07:36:04;6.22;;;5.93;;
68995;SDS011;56056;48.990;12.146;2023-04-03T07:38:31;22.20;;;20.38;;
68995;SDS011;56056;48.990;12.146;2023-04-03T07:40:57;3.80;;;3.65;;
68995;SDS011;56056;48.990;12.146;2023-04-03T07:43:23;2.58;;;2.47;;
68995;SDS011;56056;48.990;12.146;2023-04-03T07:45:49;8.68;;;8.35;;
68995;SDS011;56056;48.990;12.146;2023-04-03T07:48:17;6.93;;;6.40;;
68995;SDS011;56056;48.990;12.146;2023-04-03T07:50:48;4.60;;;4.47;;
68995;SDS011;56056;48.990;12.146;2023-04-03T07:53:14;23.65;;;22.10;;
68995;SDS011;56056;48.990;12.146;2023-04-03T07:55:40;10.75;;;10.20;;
68995;SDS011;56056;48.990;12.146;2023-04-03T07:58:08;167.82;;;159.88;;
68995;SDS011;56056;48.990;12.146;2023-04-03T08:00:34;108.72;;;103.53;;
68995;SDS011;56056;48.990;12.146;2023-04-03T08:03:00;435.20;;;404.13;;
68995;SDS011;56056;48.990;12.146;2023-04-03T08:05:27;4.43;;;4.22;;
68995;SDS011;56056;48.990;12.146;2023-04-03T08:07:53;46.47;;;42.83;;
68995;SDS011;56056;48.990;12.146;2023-04-03T08:10:19;29.35;;;27.95;;
68995;SDS011;56056;48.990;12.146;2023-04-03T08:12:45;106.07;;;101.32;;
68995;SDS011;56056;48.990;12.146;2023-04-03T08:15:11;46.03;;;44.05;;
68995;SDS011;56056;48.990;12.146;2023-04-03T08:17:36;171.88;;;163.85;;
68995;SDS011;56056;48.990;12.146;2023-04-03T08:20:02;114.75;;;109.90;;
68995;SDS011;56056;48.990;12.146;2023-04-03T08:22:30;411.65;;;393.33;;
68995;SDS011;56056;48.990;12.146;2023-04-03T08:24:56;403.15;;;382.02;;
68995;SDS011;56056;48.990;12.146;2023-04-03T08:27:22;747.50;;;704.22;;
68995;SDS011;56056;48.990;12.146;2023-04-03T08:29:47;480.77;;;453.02;;
68995;SDS011;56056;48.990;12.146;2023-04-03T08:32:13;899.13;;;837.50;;
68995;SDS011;56056;48.990;12.146;2023-04-03T08:34:38;977.63;;;907.45;;
68995;SDS011;56056;48.990;12.146;2023-04-03T08:37:04;1018.85;;;920.55;;
68995;SDS011;56056;48.990;12.146;2023-04-03T08:39:31;1196.20;;;999.90;;
68995;SDS011;56056;48.990;12.146;2023-04-03T08:41:58;1139.00;;;999.90;;
68995;SDS011;56056;48.990;12.146;2023-04-03T08:44:27;1198.97;;;999.90;;
68995;SDS011;56056;48.990;12.146;2023-04-03T08:47:02;1158.97;;;999.90;;
68995;SDS011;56056;48.990;12.146;2023-04-03T08:49:35;1145.38;;;999.90;;
68995;SDS011;56056;48.990;12.146;2023-04-03T08:52:08;1072.07;;;991.15;;
68995;SDS011;56056;48.990;12.146;2023-04-03T08:54:40;1033.05;;;956.13;;
68995;SDS011;56056;48.990;12.146;2023-04-03T08:57:12;972.95;;;898.15;;
68995;SDS011;56056;48.990;12.146;2023-04-03T08:59:37;1071.07;;;970.47;;
68995;SDS011;56056;48.990;12.146;2023-04-03T09:02:04;1096.28;;;996.90;;
68995;SDS011;56056;48.990;12.146;2023-04-03T09:04:37;954.95;;;879.83;;
68995;SDS011;56056;48.990;12.146;2023-04-03T09:07:04;897.30;;;830.40;;
68995;SDS011;56056;48.990;12.146;2023-04-03T09:09:34;945.80;;;869.55;;
68995;SDS011;56056;48.990;12.146;2023-04-03T09:12:06;963.10;;;886.33;;
68995;SDS011;56056;48.990;12.146;2023-04-03T09:14:41;1130.15;;;998.63;;
68995;SDS011;56056;48.990;12.146;2023-04-03T09:17:12;1114.97;;;999.90;;
68995;SDS011;56056;48.990;12.146;2023-04-03T09:19:41;1190.45;;;987.67;;
68995;SDS011;56056;48.990;12.146;2023-04-03T09:22:13;1498.43;;;999.90;;
68995;SDS011;56056;48.990;12.146;2023-04-03T09:24:43;1996.55;;;999.90;;
68995;SDS011;56056;48.990;12.146;2023-04-03T09:27:11;1352.50;;;999.90;;
68995;SDS011;56056;48.990;12.146;2023-04-03T09:29:38;1375.22;;;999.90;;
68995;SDS011;56056;48.990;12.146;2023-04-03T09:32:12;1521.03;;;999.90;;
68995;SDS011;56056;48.990;12.146;2023-04-03T09:34:44;1215.97;;;973.65;;
68995;SDS011;56056;48.990;12.146;2023-04-03T09:37:10;1489.30;;;999.90;;
68995;SDS011;56056;48.990;12.146;2023-04-03T09:40:02;1301.63;;;999.90;;
68995;SDS011;56056;48.990;12.146;2023-04-03T09:42:31;1548.25;;;995.28;;
68995;SDS011;56056;48.990;12.146;2023-04-03T09:44:57;1999.90;;;999.90;;
68995;SDS011;56056;48.990;12.146;2023-04-03T09:47:25;1511.72;;;999.90;;
68995;SDS011;56056;48.990;12.146;2023-04-03T09:49:54;1747.60;;;999.90;;
68995;SDS011;56056;48.990;12.146;2023-04-03T09:52:35;1838.47;;;999.90;;
68995;SDS011;56056;48.990;12.146;2023-04-03T09:55:05;1636.90;;;999.90;;
68995;SDS011;56056;48.990;12.146;2023-04-03T09:57:33;1999.90;;;999.90;;
68995;SDS011;56056;48.990;12.146;2023-04-03T10:00:00;1435.90;;;999.90;;
68995;SDS011;56056;48.990;12.146;2023-04-03T10:02:34;1796.28;;;999.90;;
68995;SDS011;56056;48.990;12.146;2023-04-03T10:05:01;1801.00;;;999.90;;
68995;SDS011;56056;48.990;12.146;2023-04-03T10:07:31;1693.35;;;999.90;;
68995;SDS011;56056;48.990;12.146;2023-04-03T10:09:59;1995.18;;;999.90;;
68995;SDS011;56056;48.990;12.146;2023-04-03T10:12:26;1667.10;;;999.90;;
68995;SDS011;56056;48.990;12.146;2023-04-03T10:14:57;1249.20;;;999.90;;
68995;SDS011;56056;48.990;12.146;2023-04-03T10:17:26;1774.25;;;999.90;;
68995;SDS011;56056;48.990;12.146;2023-04-03T10:20:09;1971.03;;;999.90;;
68995;SDS011;56056;48.990;12.146;2023-04-03T10:22:48;1956.75;;;999.90;;
68995;SDS011;56056;48.990;12.146;2023-04-03T10:25:22;1991.22;;;999.90;;
68995;SDS011;56056;48.990;12.146;2023-04-03T10:27:53;1881.53;;;999.90;;
68995;SDS011;56056;48.990;12.146;2023-04-03T10:30:36;1985.70;;;999.90;;
68995;SDS011;56056;48.990;12.146;2023-04-03T10:35:54;1758.85;;;999.90;;
68995;SDS011;56056;48.990;12.146;2023-04-03T10:38:30;1545.28;;;999.90;;
68995;SDS011;56056;48.990;12.146;2023-04-03T10:40:59;1398.95;;;999.90;;
68995;SDS011;56056;48.990;12.146;2023-04-03T10:43:32;1872.60;;;999.90;;
68995;SDS011;56056;48.990;12.146;2023-04-03T10:46:03;1999.90;;;999.90;;
68995;SDS011;56056;48.990;12.146;2023-04-03T10:48:33;1819.82;;;999.90;;
68995;SDS011;56056;48.990;12.146;2023-04-03T10:51:07;1716.22;;;999.90;;
68995;SDS011;56056;48.990;12.146;2023-04-03T10:53:39;1434.60;;;999.90;;
68995;SDS011;56056;48.990;12.146;2023-04-03T10:56:08;1541.63;;;999.90;;
68995;SDS011;56056;48.990;12.146;2023-04-03T10:58:38;1999.90;;;999.90;;
68995;SDS011;56056;48.990;12.146;2023-04-03T11:01:08;1951.13;;;999.90;;
68995;SDS011;56056;48.990;12.146;2023-04-03T11:03:36;1835.65;;;999.90;;
68995;SDS011;56056;48.990;12.146;2023-04-03T11:06:06;1737.32;;;999.90;;
68995;SDS011;56056;48.990;12.146;2023-04-03T11:08:35;1782.50;;;999.90;;
68995;SDS011;56056;48.990;12.146;2023-04-03T11:11:05;1908.50;;;999.90;;
68995;SDS011;56056;48.990;12.146;2023-04-03T11:13:34;1379.93;;;995.53;;
68995;SDS011;56056;48.990;12.146;2023-04-03T11:16:02;1999.90;;;999.90;;
68995;SDS011;56056;48.990;12.146;2023-04-03T11:18:32;1981.13;;;999.90;;
68995;SDS011;56056;48.990;12.146;2023-04-03T11:21:03;1970.78;;;999.90;;
68995;SDS011;56056;48.990;12.146;2023-04-03T11:23:32;1718.40;;;999.90;;
68995;SDS011;56056;48.990;12.146;2023-04-03T11:26:01;1243.10;;;999.90;;
68995;SDS011;56056;48.990;12.146;2023-04-03T11:28:32;1616.38;;;999.90;;
68995;SDS011;56056;48.990;12.146;2023-04-03T11:31:00;1444.78;;;999.90;;
68995;SDS011;56056;48.990;12.146;2023-04-03T11:33:35;1485.70;;;999.90;;
68995;SDS011;56056;48.990;12.146;2023-04-03T11:36:05;1564.97;;;999.90;;
68995;SDS011;56056;48.990;12.146;2023-04-03T11:38:35;1543.72;;;999.90;;
68995;SDS011;56056;48.990;12.146;2023-04-03T11:41:04;1497.72;;;999.90;;
68995;SDS011;56056;48.990;12.146;2023-04-03T11:43:32;1533.18;;;999.90;;
68995;SDS011;56056;48.990;12.146;2023-04-03T11:45:58;1773.53;;;999.90;;
68995;SDS011;56056;48.990;12.146;2023-04-03T11:57:02;1512.10;;;999.90;;
68995;SDS011;56056;48.990;12.146;2023-04-03T11:59:56;1641.32;;;999.90;;
68995;SDS011;56056;48.990;12.146;2023-04-03T12:02:35;1561.63;;;999.90;;
68995;SDS011;56056;48.990;12.146;2023-04-03T12:10:53;1388.63;;;999.90;;
68995;SDS011;56056;48.990;12.146;2023-04-03T12:13:42;1656.57;;;999.90;;
68995;SDS011;56056;48.990;12.146;2023-04-03T12:16:26;1450.20;;;999.90;;
68995;SDS011;56056;48.990;12.146;2023-04-03T12:18:57;1570.00;;;999.90;;
68995;SDS011;56056;48.990;12.146;2023-04-03T12:24:26;1999.90;;;999.90;;
68995;SDS011;56056;48.990;12.146;2023-04-03T12:27:01;1192.80;;;999.90;;
68995;SDS011;56056;48.990;12.146;2023-04-03T12:29:29;1999.90;;;999.90;;
68995;SDS011;56056;48.990;12.146;2023-04-03T12:32:04;1895.65;;;999.90;;
68995;SDS011;56056;48.990;12.146;2023-04-03T12:34:39;1342.55;;;988.08;;
68995;SDS011;56056;48.990;12.146;2023-04-03T12:37:15;1893.18;;;999.90;;
68995;SDS011;56056;48.990;12.146;2023-04-03T12:39:52;1161.68;;;975.38;;
68995;SDS011;56056;48.990;12.146;2023-04-03T12:42:29;916.10;;;828.63;;
68995;SDS011;56056;48.990;12.146;2023-04-03T12:45:10;1728.00;;;999.90;;
68995;SDS011;56056;48.990;12.146;2023-04-03T12:47:42;1999.90;;;999.90;;
68995;SDS011;56056;48.990;12.146;2023-04-03T12:50:16;1999.90;;;999.90;;
68995;SDS011;56056;48.990;12.146;2023-04-03T12:52:47;1999.90;;;999.90;;
68995;SDS011;56056;48.990;12.146;2023-04-03T12:55:19;1999.90;;;999.90;;
68995;SDS011;56056;48.990;12.146;2023-04-03T12:57:46;1999.90;;;999.90;;
68995;SDS011;56056;48.990;12.146;2023-04-03T13:00:19;1999.90;;;999.90;;
68995;SDS011;56056;48.990;12.146;2023-04-03T13:02:58;1999.90;;;999.90;;
68995;SDS011;56056;48.990;12.146;2023-04-03T13:05:24;1999.90;;;999.90;;
68995;SDS011;56056;48.990;12.146;2023-04-03T13:07:50;1751.40;;;999.90;;
68995;SDS011;56056;48.990;12.146;2023-04-03T13:10:20;1910.32;;;999.90;;
68995;SDS011;56056;48.990;12.146;2023-04-03T13:12:46;1590.50;;;999.90;;
68995;SDS011;56056;48.990;12.146;2023-04-03T13:15:15;1519.72;;;999.90;;
68995;SDS011;56056;48.990;12.146;2023-04-03T13:17:43;1999.90;;;999.90;;
68995;SDS011;56056;48.990;12.146;2023-04-03T13:20:09;1999.90;;;999.90;;
68995;SDS011;56056;48.990;12.146;2023-04-03T13:22:46;1372.50;;;999.90;;
68995;SDS011;56056;48.990;12.146;2023-04-03T13:25:14;1261.90;;;999.90;;
68995;SDS011;56056;48.990;12.146;2023-04-03T13:27:42;1455.22;;;999.90;;
68995;SDS011;56056;48.990;12.146;2023-04-03T13:30:17;1905.20;;;999.90;;
68995;SDS011;56056;48.990;12.146;2023-04-03T13:32:46;1999.90;;;999.90;;
68995;SDS011;56056;48.990;12.146;2023-04-03T13:35:26;1999.90;;;999.90;;
68995;SDS011;56056;48.990;12.146;2023-04-03T13:37:53;1999.90;;;999.90;;
68995;SDS011;56056;48.990;12.146;2023-04-03T13:40:19;1999.90;;;999.90;;
68995;SDS011;56056;48.990;12.146;2023-04-03T13:42:48;1999.90;;;999.90;;
68995;SDS011;56056;48.990;12.146;2023-04-03T13:45:25;1996.63;;;999.90;;
68995;SDS011;56056;48.990;12.146;2023-04-03T13:47:54;1984.85;;;999.90;;
68995;SDS011;56056;48.990;12.146;2023-04-03T13:50:33;1053.45;;;859.22;;
68995;SDS011;56056;48.990;12.146;2023-04-03T13:53:17;1138.13;;;985.35;;
68995;SDS011;56056;48.990;12.146;2023-04-03T13:55:52;914.00;;;826.67;;
68995;SDS011;56056;48.990;12.146;2023-04-03T13:58:23;805.67;;;734.78;;
68995;SDS011;56056;48.990;12.146;2023-04-03T14:00:51;694.90;;;644.22;;
68995;SDS011;56056;48.990;12.146;2023-04-03T14:03:19;910.92;;;830.67;;
68995;SDS011;56056;48.990;12.146;2023-04-03T14:05:46;955.35;;;873.90;;
68995;SDS011;56056;48.990;12.146;2023-04-03T14:08:12;731.08;;;676.53;;
68995;SDS011;56056;48.990;12.146;2023-04-03T14:10:38;659.33;;;618.53;;
68995;SDS011;56056;48.990;12.146;2023-04-03T14:13:04;702.67;;;654.10;;
68995;SDS011;56056;48.990;12.146;2023-04-03T14:15:31;783.83;;;723.42;;
68995;SDS011;56056;48.990;12.146;2023-04-03T14:17:57;904.05;;;825.50;;
68995;SDS011;56056;48.990;12.146;2023-04-03T14:20:24;1546.43;;;999.90;;
68995;SDS011;56056;48.990;12.146;2023-04-03T14:22:51;1325.68;;;999.90;;
68995;SDS011;56056;48.990;12.146;2023-04-03T14:25:18;1207.72;;;996.90;;
68995;SDS011;56056;48.990;12.146;2023-04-03T14:27:45;1166.00;;;964.20;;